createdAt,value
2024-05-09T00:00:42.996Z,100.00
2024-05-09T00:03:11.719Z,100.00
2024-05-09T00:05:45.664Z,100.00
2024-05-09T00:08:13.182Z,100.00
2024-05-09T00:10:41.297Z,100.00
2024-05-09T00:13:10.634Z,100.00
2024-05-09T00:15:38.648Z,100.00
2024-05-09T00:18:07.665Z,100.00
2024-05-09T00:20:39.610Z,100.00
2024-05-09T00:23:13.695Z,100.00
2024-05-09T00:25:43.816Z,100.00
2024-05-09T00:28:12.724Z,100.00
2024-05-09T00:30:40.720Z,100.00
2024-05-09T00:33:09.853Z,100.00
2024-05-09T00:35:38.896Z,100.00
2024-05-09T00:38:06.463Z,100.00
2024-05-09T00:40:40.531Z,100.00
2024-05-09T00:43:14.600Z,100.00
2024-05-09T00:45:43.686Z,100.00
2024-05-09T00:48:15.369Z,100.00
2024-05-09T00:50:46.630Z,100.00
2024-05-09T00:53:15.940Z,100.00
2024-05-09T00:55:45.018Z,100.00
2024-05-09T00:58:16.684Z,100.00
2024-05-09T01:00:44.619Z,100.00
2024-05-09T01:03:13.897Z,100.00
2024-05-09T01:05:43.477Z,100.00
2024-05-09T01:08:11.939Z,100.00
2024-05-09T01:10:42.791Z,100.00
2024-05-09T01:13:12.346Z,100.00
2024-05-09T01:15:39.634Z,100.00
2024-05-09T01:18:14.227Z,100.00
2024-05-09T01:20:44.251Z,100.00
2024-05-09T01:23:15.109Z,100.00
2024-05-09T01:25:44.814Z,100.00
2024-05-09T01:28:12.602Z,100.00
2024-05-09T01:30:39.983Z,100.00
2024-05-09T01:33:09.430Z,100.00
2024-05-09T01:35:39.354Z,100.00
2024-05-09T01:38:07.949Z,100.00
2024-05-09T01:40:38.843Z,100.00
2024-05-09T01:43:09.648Z,100.00
2024-05-09T01:45:38.603Z,100.00
2024-05-09T01:48:06.845Z,100.00
2024-05-09T01:50:39.503Z,100.00
2024-05-09T01:53:11.684Z,100.00
2024-05-09T01:55:39.562Z,100.00
2024-05-09T01:58:07.474Z,100.00
2024-05-09T02:00:40.126Z,100.00
2024-05-09T02:03:16.629Z,100.00
2024-05-09T02:05:50.124Z,100.00
2024-05-09T02:08:20.376Z,100.00
2024-05-09T02:10:50.675Z,100.00
2024-05-09T02:13:18.371Z,100.00
2024-05-09T02:15:45.803Z,100.00
2024-05-09T02:18:13.730Z,100.00
2024-05-09T02:20:42.532Z,100.00
2024-05-09T02:23:10.784Z,100.00
2024-05-09T02:25:38.118Z,100.00
2024-05-09T02:28:05.924Z,100.00
2024-05-09T02:30:40.232Z,100.00
2024-05-09T02:33:14.128Z,100.00
2024-05-09T02:35:43.869Z,100.00
2024-05-09T02:38:12.450Z,100.00
2024-05-09T02:40:40.571Z,100.00
2024-05-09T02:43:10.420Z,100.00
2024-05-09T02:45:39.976Z,100.00
2024-05-09T02:48:10.953Z,100.00
2024-05-09T02:50:40.822Z,100.00
2024-05-09T02:53:09.536Z,100.00
2024-05-09T02:55:41.295Z,100.00
2024-05-09T02:58:10.106Z,100.00
2024-05-09T03:00:40.828Z,100.00
2024-05-09T03:03:13.773Z,100.00
2024-05-09T03:05:44.496Z,100.00
2024-05-09T03:08:12.190Z,100.00
2024-05-09T03:10:39.952Z,100.00
2024-05-09T03:13:14.483Z,100.00
2024-05-09T03:15:43.719Z,100.00
2024-05-09T03:18:11.950Z,100.00
2024-05-09T03:20:40.164Z,100.00
2024-05-09T03:23:09.461Z,100.00
2024-05-09T03:25:38.551Z,100.00
2024-05-09T03:28:06.487Z,100.00
2024-05-09T03:30:40.876Z,100.00
2024-05-09T03:33:12.481Z,100.00
2024-05-09T03:35:40.947Z,100.00
2024-05-09T03:38:08.223Z,100.00
2024-05-09T03:40:35.652Z,100.00
2024-05-09T03:43:02.850Z,100.00
2024-05-09T03:45:29.951Z,100.00
2024-05-09T03:47:57.510Z,100.00
2024-05-09T03:50:30.285Z,100.00
2024-05-09T03:53:02.147Z,100.00
2024-05-09T03:55:29.909Z,100.00
2024-05-09T03:57:58.042Z,100.00
2024-05-09T04:00:31.222Z,100.00
2024-05-09T04:03:07.586Z,100.00
2024-05-09T04:05:38.164Z,100.00
2024-05-09T04:08:06.176Z,100.00
2024-05-09T04:10:34.959Z,100.00
2024-05-09T04:13:03.854Z,100.00
2024-05-09T04:15:32.148Z,100.00
2024-05-09T04:17:59.873Z,100.00
2024-05-09T04:20:36.237Z,100.00
2024-05-09T04:23:08.494Z,100.00
2024-05-09T04:25:36.554Z,100.00
2024-05-09T04:28:04.229Z,100.00
2024-05-09T04:30:37.918Z,100.00
2024-05-09T04:33:11.471Z,100.00
2024-05-09T04:35:44.576Z,100.00
2024-05-09T04:38:14.301Z,100.00
2024-05-09T04:40:42.401Z,100.00
2024-05-09T04:43:16.273Z,100.00
2024-05-09T04:45:43.502Z,100.00
2024-05-09T04:48:11.591Z,100.00
2024-05-09T04:50:39.872Z,100.00
2024-05-09T04:53:11.435Z,100.00
2024-05-09T04:55:40.300Z,100.00
2024-05-09T04:58:14.569Z,100.00
2024-05-09T05:00:42.023Z,100.00
2024-05-09T05:03:14.089Z,100.00
2024-05-09T05:05:45.218Z,100.00
2024-05-09T05:08:15.139Z,100.00
2024-05-09T05:10:43.830Z,100.00
2024-05-09T05:13:23.939Z,98.91
2024-05-09T05:15:56.783Z,98.46
2024-05-09T05:18:29.378Z,99.00
2024-05-09T05:20:58.312Z,99.73
2024-05-09T05:23:25.860Z,100.00
2024-05-09T05:25:54.245Z,100.00
2024-05-09T05:28:22.196Z,99.40
2024-05-09T05:30:49.987Z,99.95
2024-05-09T05:33:23.210Z,100.00
2024-05-09T05:35:50.964Z,100.00
2024-05-09T05:38:21.237Z,100.00
2024-05-09T05:40:49.954Z,100.00
2024-05-09T05:43:19.011Z,100.00
2024-05-09T05:45:46.873Z,100.00
2024-05-09T05:48:18.130Z,100.00
2024-05-09T05:50:47.861Z,100.00
2024-05-09T05:53:15.127Z,100.00
2024-05-09T05:55:42.585Z,100.00
2024-05-09T05:58:11.312Z,100.00
2024-05-09T06:00:40.528Z,100.00
2024-05-09T06:03:10.050Z,100.00
2024-05-09T06:05:44.020Z,100.00
2024-05-09T06:08:12.417Z,100.00
2024-05-09T06:10:41.159Z,100.00
2024-05-09T06:13:13.713Z,100.00
2024-05-09T06:15:41.864Z,100.00
2024-05-09T06:18:10.852Z,100.00
2024-05-09T06:20:40.430Z,100.00
2024-05-09T06:23:09.879Z,100.00
2024-05-09T06:25:37.997Z,100.00
2024-05-09T06:28:05.989Z,100.00
2024-05-09T06:33:05.168Z,100.00
2024-05-09T06:35:33.622Z,99.89
2024-05-09T06:38:01.627Z,100.00
2024-05-09T06:40:37.029Z,100.00
2024-05-09T06:43:20.131Z,100.00
2024-05-09T06:45:54.199Z,99.45
2024-05-09T06:48:22.493Z,99.30
2024-05-09T06:50:50.529Z,99.34
2024-05-09T06:53:21.356Z,99.67
2024-05-09T06:55:48.707Z,100.00
2024-05-09T06:58:16.363Z,98.36
2024-05-09T07:00:43.783Z,99.15
2024-05-09T07:03:15.468Z,99.70
2024-05-09T07:05:46.517Z,96.62
2024-05-09T07:08:14.743Z,96.41
2024-05-09T07:10:42.360Z,96.52
2024-05-09T07:13:10.921Z,97.65
2024-05-09T07:15:38.563Z,95.90
2024-05-09T07:18:16.710Z,96.57
2024-05-09T07:20:45.766Z,93.01
2024-05-09T07:23:13.335Z,95.66
2024-05-09T07:25:41.734Z,91.20
2024-05-09T07:28:27.262Z,95.76
2024-05-09T07:30:54.511Z,91.56
2024-05-09T07:33:23.802Z,88.42
2024-05-09T07:35:52.450Z,88.94
2024-05-09T07:38:19.992Z,88.35
2024-05-09T07:40:47.423Z,85.13
2024-05-09T07:43:15.885Z,82.47
2024-05-09T07:45:51.702Z,83.33
2024-05-09T07:52:39.068Z,87.46
2024-05-09T07:53:47.658Z,84.86
2024-05-09T07:56:19.869Z,80.46
2024-05-09T07:58:50.790Z,81.60
2024-05-09T08:01:18.546Z,81.29
2024-05-09T08:03:46.136Z,79.85
2024-05-09T08:06:13.567Z,74.92
2024-05-09T08:08:40.900Z,72.07
2024-05-09T08:11:08.118Z,74.43
2024-05-09T08:13:35.380Z,73.26
2024-05-09T08:16:02.602Z,76.15
2024-05-09T08:18:29.962Z,76.37
2024-05-09T08:20:58.220Z,76.89
2024-05-09T08:23:25.500Z,73.42
2024-05-09T08:25:55.267Z,75.91
2024-05-09T08:28:22.489Z,73.97
2024-05-09T08:30:50.709Z,74.44
2024-05-09T08:33:18.165Z,76.34
2024-05-09T08:35:45.470Z,76.17
2024-05-09T08:38:12.763Z,74.20
2024-05-09T08:40:40.082Z,75.00
2024-05-09T08:43:11.254Z,76.32
2024-05-09T08:45:44.299Z,74.28
2024-05-09T08:48:15.300Z,73.02
2024-05-09T08:50:45.003Z,73.85
2024-05-09T08:53:14.555Z,70.83
2024-05-09T08:55:43.687Z,70.35
2024-05-09T08:58:20.916Z,71.06
2024-05-09T09:00:49.480Z,72.00
2024-05-09T09:03:25.432Z,69.15
2024-05-09T09:06:12.481Z,69.25
2024-05-09T09:08:40.219Z,71.52
2024-05-09T09:11:07.506Z,70.42
2024-05-09T09:13:34.722Z,70.90
2024-05-09T09:16:03.143Z,67.40
2024-05-09T09:18:31.079Z,71.78
2024-05-09T09:20:58.721Z,64.27
2024-05-09T09:23:30.365Z,62.90
2024-05-09T09:26:01.342Z,63.71
2024-05-09T09:28:29.643Z,63.65
2024-05-09T09:31:04.092Z,65.42
2024-05-09T09:33:31.932Z,62.62
2024-05-09T09:36:01.982Z,63.54
2024-05-09T09:38:32.464Z,65.81
2024-05-09T09:41:01.815Z,65.67
2024-05-09T09:43:29.715Z,61.09
2024-05-09T09:46:00.107Z,64.93
2024-05-09T09:48:28.025Z,61.22
2024-05-09T09:50:57.028Z,60.83
2024-05-09T09:53:24.537Z,64.14
2024-05-09T09:55:59.173Z,63.03
2024-05-09T09:58:27.619Z,62.63
2024-05-09T10:00:55.276Z,58.33
2024-05-09T10:03:22.931Z,58.17
2024-05-09T10:05:50.732Z,58.00
2024-05-09T10:08:18.990Z,57.31
2024-05-09T10:10:47.969Z,58.05
2024-05-09T10:13:16.211Z,57.51
2024-05-09T10:15:54.314Z,55.01
2024-05-09T10:18:28.158Z,56.39
2024-05-09T10:20:58.070Z,57.30
2024-05-09T10:23:36.275Z,57.19
2024-05-09T10:26:06.370Z,60.24
2024-05-09T10:28:37.143Z,58.14
2024-05-09T10:31:11.200Z,62.09
2024-05-09T10:33:50.850Z,58.94
2024-05-09T10:36:25.630Z,59.43
2024-05-09T10:38:54.651Z,58.37
2024-05-09T10:41:23.704Z,60.73
2024-05-09T10:43:52.140Z,58.16
2024-05-09T10:46:20.011Z,60.71
2024-05-09T10:48:48.653Z,61.35
2024-05-09T10:51:19.593Z,57.25
2024-05-09T10:53:48.732Z,58.71
2024-05-09T10:56:17.240Z,59.14
2024-05-09T10:58:44.819Z,57.62
2024-05-09T11:01:14.101Z,59.01
2024-05-09T11:03:41.983Z,59.21
2024-05-09T11:06:11.405Z,57.60
2024-05-09T11:08:39.232Z,56.95
2024-05-09T11:11:08.491Z,59.46
2024-05-09T11:13:39.071Z,57.07
2024-05-09T11:16:20.027Z,55.02
2024-05-09T11:18:58.114Z,55.90
2024-05-09T11:21:26.072Z,58.01
2024-05-09T11:23:53.455Z,55.47
2024-05-09T11:26:22.200Z,56.44
2024-05-09T11:28:50.895Z,56.60
2024-05-09T11:31:18.496Z,54.34
2024-05-09T11:33:46.742Z,54.71
2024-05-09T11:36:15.196Z,53.89
2024-05-09T11:38:42.968Z,57.01
2024-05-09T11:41:18.604Z,52.54
2024-05-09T11:43:46.977Z,52.60
2024-05-09T11:46:14.699Z,56.15
2024-05-09T11:48:42.250Z,55.25
2024-05-09T11:51:09.585Z,52.53
2024-05-09T11:53:37.833Z,55.59
2024-05-09T11:56:05.436Z,57.39
2024-05-09T11:58:34.756Z,53.55
2024-05-09T12:01:02.865Z,51.86
2024-05-09T12:03:30.376Z,49.98
2024-05-09T12:05:58.038Z,50.66
2024-05-09T12:08:25.378Z,51.96
2024-05-09T12:10:53.086Z,50.84
2024-05-09T12:13:20.609Z,51.70
2024-05-09T12:15:47.850Z,53.10
2024-05-09T12:18:15.137Z,51.76
2024-05-09T12:20:43.025Z,51.13
2024-05-09T12:23:10.852Z,50.52
2024-05-09T12:25:39.843Z,50.49
2024-05-09T12:28:11.090Z,50.57
2024-05-09T12:30:40.537Z,48.02
2024-05-09T12:33:14.196Z,48.49
2024-05-09T12:35:44.605Z,52.03
2024-05-09T12:38:15.368Z,50.32
2024-05-09T12:40:43.032Z,50.58
2024-05-09T12:43:11.460Z,50.71
2024-05-09T12:45:39.914Z,53.71
2024-05-09T12:48:12.346Z,49.65
2024-05-09T12:50:41.094Z,52.91
2024-05-09T12:53:08.578Z,51.52
2024-05-09T12:55:44.312Z,50.04
2024-05-09T12:58:22.193Z,47.63
2024-05-09T13:00:52.709Z,49.72
2024-05-09T13:03:20.563Z,48.97
2024-05-09T13:05:48.808Z,46.91
2024-05-09T13:08:16.838Z,47.83
2024-05-09T13:10:44.745Z,50.20
2024-05-09T13:13:12.931Z,49.82
2024-05-09T13:15:40.802Z,49.09
2024-05-09T13:18:09.443Z,47.70
2024-05-09T13:20:37.671Z,49.15
2024-05-09T13:23:07.926Z,50.25
2024-05-09T13:25:37.734Z,49.42
2024-05-09T13:28:07.007Z,50.30
2024-05-09T13:30:39.938Z,53.04
2024-05-09T13:33:14.082Z,48.25
2024-05-09T13:35:47.204Z,49.51
2024-05-09T13:38:19.176Z,53.80
2024-05-09T13:40:47.483Z,50.05
2024-05-09T13:43:15.484Z,48.95
2024-05-09T13:45:43.214Z,48.13
2024-05-09T13:48:11.391Z,48.29
2024-05-09T13:50:39.507Z,49.68
2024-05-09T13:53:08.373Z,47.90
2024-05-09T13:55:40.800Z,48.52
2024-05-09T13:58:09.422Z,53.56
2024-05-09T14:00:45.947Z,50.84
2024-05-09T14:03:21.174Z,49.78
2024-05-09T14:05:51.233Z,48.68
2024-05-09T14:08:22.505Z,48.77
2024-05-09T14:10:50.834Z,48.50
2024-05-09T14:13:18.619Z,48.42
2024-05-09T14:15:47.117Z,46.76
2024-05-09T14:18:14.974Z,50.55
2024-05-09T14:20:43.117Z,49.75
2024-05-09T14:23:10.858Z,46.54
2024-05-09T14:25:42.351Z,48.81
2024-05-09T14:28:11.568Z,48.99
2024-05-09T14:30:39.840Z,49.20
2024-05-09T14:33:08.711Z,50.72
2024-05-09T14:35:38.608Z,51.06
2024-05-09T14:38:08.399Z,50.09
2024-05-09T14:40:42.000Z,48.28
2024-05-09T14:43:15.879Z,48.62
2024-05-09T14:45:44.267Z,50.18
2024-05-09T14:48:16.080Z,47.69
2024-05-09T14:50:43.785Z,50.09
2024-05-09T14:53:13.183Z,51.76
2024-05-09T14:55:43.012Z,48.71
2024-05-09T14:58:12.067Z,49.97
2024-05-09T15:00:46.279Z,48.19
2024-05-09T15:03:21.796Z,48.55
2024-05-09T15:05:50.333Z,51.09
2024-05-09T15:08:19.184Z,49.13
2024-05-09T15:10:47.199Z,49.11
2024-05-09T15:13:16.743Z,49.48
2024-05-09T15:15:44.951Z,50.51
2024-05-09T15:18:13.655Z,50.33
2024-05-09T15:20:41.537Z,50.26
2024-05-09T15:23:08.952Z,51.40
2024-05-09T15:25:37.082Z,50.57
2024-05-09T15:28:07.825Z,49.32
2024-05-09T15:30:36.143Z,49.31
2024-05-09T15:33:04.612Z,52.22
2024-05-09T15:35:33.423Z,52.31
2024-05-09T15:38:03.217Z,49.97
2024-05-09T15:40:37.832Z,51.60
2024-05-09T15:43:09.772Z,50.46
2024-05-09T15:45:39.090Z,48.48
2024-05-09T15:48:08.611Z,48.62
2024-05-09T15:50:40.000Z,48.22
2024-05-09T15:53:11.932Z,49.40
2024-05-09T15:55:40.076Z,50.33
2024-05-09T15:58:07.908Z,50.73
2024-05-09T16:00:39.786Z,51.27
2024-05-09T16:03:11.308Z,49.00
2024-05-09T16:05:40.747Z,51.50
2024-05-09T16:08:08.761Z,49.77
2024-05-09T16:10:43.185Z,50.49
2024-05-09T16:13:11.884Z,50.26
2024-05-09T16:15:39.343Z,51.24
2024-05-09T16:18:07.397Z,48.77
2024-05-09T16:20:39.974Z,49.90
2024-05-09T16:23:10.195Z,50.58
2024-05-09T16:25:37.925Z,50.71
2024-05-09T16:28:09.138Z,51.73
2024-05-09T16:30:39.785Z,51.79
2024-05-09T16:33:08.159Z,50.95
2024-05-09T16:35:36.216Z,52.12
2024-05-09T16:38:04.397Z,49.83
2024-05-09T16:40:38.356Z,50.94
2024-05-09T16:43:12.839Z,51.13
2024-05-09T16:45:45.935Z,49.97
2024-05-09T16:48:14.540Z,50.98
2024-05-09T16:50:41.896Z,50.04
2024-05-09T16:53:09.215Z,49.10
2024-05-09T16:55:36.845Z,49.96
2024-05-09T16:58:05.125Z,48.85
2024-05-09T17:00:40.302Z,49.84
2024-05-09T17:03:13.754Z,48.72
2024-05-09T17:05:42.989Z,47.28
2024-05-09T17:08:10.501Z,47.15
2024-05-09T17:10:37.855Z,46.31
2024-05-09T17:13:07.175Z,46.43
2024-05-09T17:15:37.236Z,46.72
2024-05-09T17:18:07.067Z,46.36
2024-05-09T17:20:36.921Z,46.84
2024-05-09T17:23:14.024Z,46.43
2024-05-09T17:25:42.211Z,46.50
2024-05-09T17:28:10.006Z,46.81
2024-05-09T17:30:39.839Z,47.52
2024-05-09T17:33:10.117Z,47.82
2024-05-09T17:35:38.760Z,47.15
2024-05-09T17:38:07.118Z,45.90
2024-05-09T17:40:37.152Z,46.64
2024-05-09T17:43:10.561Z,45.55
2024-05-09T17:45:40.948Z,44.09
2024-05-09T17:48:10.773Z,44.39
2024-05-09T17:50:39.346Z,44.95
2024-05-09T17:53:07.075Z,44.71
2024-05-09T17:55:35.481Z,46.55
2024-05-09T17:58:05.100Z,47.78
2024-05-09T18:00:39.040Z,49.84
2024-05-09T18:03:13.581Z,50.11
2024-05-09T18:05:43.162Z,50.93
2024-05-09T18:08:11.723Z,52.02
2024-05-09T18:10:41.362Z,52.11
2024-05-09T18:13:09.715Z,53.20
2024-05-09T18:15:38.304Z,52.70
2024-05-09T18:18:07.442Z,52.77
2024-05-09T18:20:42.758Z,53.85
2024-05-09T18:23:16.370Z,54.27
2024-05-09T18:25:45.690Z,55.38
2024-05-09T18:28:13.434Z,56.21
2024-05-09T18:30:41.218Z,57.64
2024-05-09T18:33:11.407Z,59.49
2024-05-09T18:35:40.981Z,60.42
2024-05-09T18:38:09.392Z,61.33
2024-05-09T18:40:38.496Z,62.13
2024-05-09T18:43:08.639Z,63.28
2024-05-09T18:45:38.373Z,64.65
2024-05-09T18:48:08.379Z,64.38
2024-05-09T18:50:39.632Z,65.93
2024-05-09T18:53:12.899Z,66.47
2024-05-09T18:55:42.484Z,66.51
2024-05-09T18:58:09.870Z,67.75
2024-05-09T19:00:40.025Z,67.25
2024-05-09T19:03:12.786Z,66.72
2024-05-09T19:05:43.690Z,71.19
2024-05-09T19:08:12.397Z,72.27
2024-05-09T19:10:40.435Z,75.11
2024-05-09T19:13:13.033Z,77.41
2024-05-09T19:15:42.690Z,77.42
2024-05-09T19:18:14.465Z,77.13
2024-05-09T19:20:42.758Z,77.09
2024-05-09T19:23:11.651Z,76.85
2024-05-09T19:25:39.470Z,75.91
2024-05-09T19:28:07.105Z,76.82
2024-05-09T19:30:39.989Z,76.71
2024-05-09T19:33:12.995Z,75.75
2024-05-09T19:35:44.234Z,75.24
2024-05-09T19:38:12.263Z,75.71
2024-05-09T19:40:39.518Z,75.95
2024-05-09T19:43:07.182Z,76.46
2024-05-09T19:45:35.765Z,76.97
2024-05-09T19:48:05.148Z,76.74
2024-05-09T19:50:40.958Z,76.32
2024-05-09T19:53:12.546Z,77.75
2024-05-09T19:55:40.889Z,77.69
2024-05-09T19:58:09.946Z,78.04
2024-05-09T20:00:41.933Z,78.60
2024-05-09T20:03:12.966Z,79.12
2024-05-09T20:05:42.630Z,79.58
2024-05-09T20:08:10.277Z,79.92
2024-05-09T20:10:38.113Z,79.85
2024-05-09T20:13:07.112Z,79.43
2024-05-09T20:15:37.124Z,80.67
2024-05-09T20:18:05.348Z,81.57
2024-05-09T20:20:39.107Z,81.70
2024-05-09T20:23:10.268Z,81.86
2024-05-09T20:25:37.729Z,82.33
2024-05-09T20:28:06.399Z,83.06
2024-05-09T20:30:35.496Z,82.54
2024-05-09T20:33:05.310Z,82.10
2024-05-09T20:35:34.191Z,81.90
2024-05-09T20:38:02.520Z,82.07
2024-05-09T20:40:35.146Z,82.79
2024-05-09T20:43:07.105Z,82.25
2024-05-09T20:45:35.140Z,82.43
2024-05-09T20:48:02.864Z,82.09
2024-05-09T20:50:37.510Z,83.18
2024-05-09T20:53:12.595Z,84.76
2024-05-09T20:55:41.207Z,86.69
2024-05-09T20:58:09.917Z,86.87
2024-05-09T21:00:41.132Z,89.21
2024-05-09T21:03:12.932Z,89.49
2024-05-09T21:05:41.250Z,89.82
2024-05-09T21:08:09.111Z,89.82
2024-05-09T21:10:37.422Z,90.03
2024-05-09T21:13:06.645Z,91.04
2024-05-09T21:15:34.907Z,92.88
2024-05-09T21:18:02.694Z,93.03
2024-05-09T21:20:32.930Z,95.43
2024-05-09T21:23:02.153Z,95.06
2024-05-09T21:25:29.964Z,95.00
2024-05-09T21:27:57.528Z,94.81
2024-05-09T21:30:36.992Z,93.98
2024-05-09T21:33:10.084Z,95.12
2024-05-09T21:35:38.781Z,96.06
2024-05-09T21:38:07.220Z,98.26
2024-05-09T21:40:36.160Z,98.98
2024-05-09T21:43:07.167Z,98.24
2024-05-09T21:45:35.300Z,98.28
2024-05-09T21:48:07.421Z,98.18
2024-05-09T21:50:40.305Z,98.01
2024-05-09T21:53:11.026Z,96.58
2024-05-09T21:55:38.279Z,96.97
2024-05-09T21:58:05.766Z,94.78
2024-05-09T22:00:37.659Z,92.72
2024-05-09T22:03:11.343Z,93.65
2024-05-09T22:05:42.367Z,94.30
2024-05-09T22:08:10.886Z,93.51
2024-05-09T22:10:38.328Z,93.62
2024-05-09T22:13:06.824Z,93.96
2024-05-09T22:15:40.111Z,94.01
2024-05-09T22:18:09.876Z,93.86
2024-05-09T22:20:44.662Z,93.73
2024-05-09T22:23:14.226Z,93.32
2024-05-09T22:25:42.419Z,92.58
2024-05-09T22:28:10.040Z,92.50
2024-05-09T22:30:39.691Z,92.17
2024-05-09T22:33:11.962Z,93.17
2024-05-09T22:35:41.109Z,92.49
2024-05-09T22:38:09.071Z,92.61
2024-05-09T22:40:46.141Z,92.48
2024-05-09T22:43:24.633Z,91.79
2024-05-09T22:45:56.797Z,90.93
2024-05-09T22:48:25.727Z,91.03
2024-05-09T22:50:54.617Z,91.12
2024-05-09T22:53:25.440Z,90.67
2024-05-09T22:55:53.082Z,92.04
2024-05-09T22:58:20.899Z,92.54
2024-05-09T23:00:48.378Z,91.98
2024-05-09T23:03:16.659Z,91.29
2024-05-09T23:05:45.003Z,91.66
2024-05-09T23:08:12.181Z,91.52
2024-05-09T23:10:39.513Z,90.87
2024-05-09T23:13:07.964Z,91.72
2024-05-09T23:15:38.647Z,91.90
2024-05-09T23:18:07.064Z,90.83
2024-05-09T23:20:38.430Z,92.16
2024-05-09T23:23:08.512Z,93.31
2024-05-09T23:25:37.678Z,93.75
2024-05-09T23:28:06.139Z,93.13
2024-05-09T23:30:38.430Z,92.53
2024-05-09T23:33:10.465Z,92.15
2024-05-09T23:35:38.895Z,94.58
2024-05-09T23:38:06.178Z,95.11
2024-05-09T23:40:39.399Z,96.07
2024-05-09T23:43:12.763Z,96.04
2024-05-09T23:45:41.332Z,95.36
2024-05-09T23:48:09.715Z,95.44
2024-05-09T23:50:39.075Z,95.09
2024-05-09T23:53:08.959Z,96.17
2024-05-09T23:55:37.571Z,96.70
2024-05-09T23:58:05.756Z,96.03
